Time;durP1;ratioP1;P1;durP2;ratioP2;P2;SDS_P1;SDS_P2;PMS_P1;PMS_P2;Temp;Humidity;BMP_temperature;BMP_pressure;BME280_temperature;BME280_humidity;BME280_pressure;Samples;Min_cycle;Max_cycle;Signal;HPM_P1;HPM_P2
2023/01/15 00:00:52;;;;;;;;;;;6.30;99.90;;;;;;5032152;28;19947;-60
2023/01/15 00:03:20;;;;;;;;;;;6.20;99.90;;;;;;5031829;28;20537;-62
2023/01/15 00:05:46;;;;;;;;;;;6.30;99.90;;;;;;5032190;28;19975;-62
2023/01/15 00:08:13;;;;;;;;;;;6.20;99.90;;;;;;5031771;28;19921;-63
2023/01/15 00:10:39;;;;;;;;;;;6.20;99.90;;;;;;5031863;28;19925;-62
2023/01/15 00:13:06;;;;;;;;;;;6.30;99.90;;;;;;5032274;28;19925;-61
2023/01/15 00:15:33;;;;;;;;;;;6.30;99.90;;;;;;5032160;28;19976;-61
2023/01/15 00:17:59;;;;;;;;;;;6.30;99.90;;;;;;5031758;28;19921;-63
2023/01/15 00:20:27;;;;;;;;;;;6.30;99.90;;;;;;5031876;28;20300;-61
2023/01/15 00:22:54;;;;;;;;;;;6.20;99.90;;;;;;5032334;28;19948;-62
2023/01/15 00:28:04;;;;;;;;;;;6.20;99.90;;;;;;5023208;28;19928;-61
2023/01/15 00:30:31;;;;;;;;;;;6.10;99.90;;;;;;5012800;28;19972;-61
2023/01/15 00:32:58;;;;;;;;;;;6.20;99.90;;;;;;5012222;28;19949;-62
2023/01/15 00:35:25;;;;;;;;;;;6.20;99.90;;;;;;5012149;28;19960;-61
2023/01/15 00:37:53;;;;;;;;;;;6.20;99.90;;;;;;5011761;28;20392;-60
2023/01/15 00:40:21;;;;;;;;;;;6.20;99.90;;;;;;5012097;28;19921;-59
2023/01/15 00:42:47;;;;;;;;;;;6.20;99.90;;;;;;5011876;28;19926;-59
2023/01/15 00:45:14;;;;;;;;;;;6.00;99.90;;;;;;5015064;28;19921;-60
2023/01/15 00:47:42;;;;;;;;;;;6.10;99.90;;;;;;5015303;28;20035;-59
2023/01/15 00:50:12;;;;;;;;;;;6.10;99.90;;;;;;5015597;28;20269;-60
2023/01/15 00:52:38;;;;;;;;;;;6.10;99.90;;;;;;5015891;28;19943;-60
2023/01/15 00:55:07;;;;;;;;;;;6.10;99.90;;;;;;5015565;28;19948;-60
2023/01/15 00:57:33;;;;;;;;;;;6.00;99.90;;;;;;5023407;28;19921;-61
2023/01/15 01:00:00;;;;;;;;;;;6.00;99.90;;;;;;5030252;28;20130;-62
2023/01/15 01:02:27;;;;;;;;;;;6.00;99.90;;;;;;5035102;28;20343;-61
2023/01/15 01:04:53;;;;;;;;;;;6.00;99.90;;;;;;5035132;28;19921;-62
2023/01/15 01:07:20;;;;;;;;;;;5.80;99.90;;;;;;5035122;28;19967;-58
2023/01/15 01:09:46;;;;;;;;;;;5.80;99.90;;;;;;5035104;28;19925;-60
2023/01/15 01:12:14;;;;;;;;;;;5.80;99.90;;;;;;5035187;28;19921;-59
2023/01/15 01:14:42;;;;;;;;;;;5.80;99.90;;;;;;5035046;28;19932;-59
2023/01/15 01:17:09;;;;;;;;;;;5.90;99.90;;;;;;5034857;28;20431;-60
2023/01/15 01:19:36;;;;;;;;;;;5.80;99.90;;;;;;5035187;28;19934;-59
2023/01/15 01:22:02;;;;;;;;;;;5.70;99.90;;;;;;5034790;28;19924;-60
2023/01/15 01:24:29;;;;;;;;;;;6.10;99.90;;;;;;5034877;28;19925;-61
2023/01/15 01:26:56;;;;;;;;;;;5.70;99.90;;;;;;5028058;28;19921;-61
2023/01/15 01:29:24;;;;;;;;;;;5.80;99.90;;;;;;5023020;28;19921;-62
2023/01/15 01:31:51;;;;;;;;;;;5.90;99.90;;;;;;5014930;28;19948;-59
2023/01/15 01:34:17;;;;;;;;;;;5.90;99.90;;;;;;5015063;28;19976;-61
2023/01/15 01:36:44;;;;;;;;;;;6.00;99.90;;;;;;5014454;28;19925;-62
2023/01/15 01:39:13;;;;;;;;;;;5.90;99.90;;;;;;5014737;28;19929;-61
2023/01/15 01:41:40;;;;;;;;;;;5.90;99.90;;;;;;5014884;28;19921;-61
2023/01/15 01:44:07;;;;;;;;;;;5.90;99.90;;;;;;5014543;28;19983;-59
2023/01/15 01:46:36;;;;;;;;;;;5.90;99.90;;;;;;5014212;28;20373;-57
2023/01/15 01:49:04;;;;;;;;;;;5.90;99.90;;;;;;5015070;28;20289;-59
2023/01/15 01:51:34;;;;;;;;;;;5.90;99.90;;;;;;5013259;28;19925;-59
2023/01/15 01:54:01;;;;;;;;;;;6.00;99.90;;;;;;5013686;28;20446;-62
2023/01/15 01:56:28;;;;;;;;;;;5.90;99.90;;;;;;5015082;28;19922;-61
2023/01/15 01:58:55;;;;;;;;;;;6.00;99.90;;;;;;5025782;28;19921;-62
2023/01/15 02:01:22;;;;;;;;;;;6.00;99.90;;;;;;5034273;28;19925;-58
2023/01/15 02:03:51;;;;;;;;;;;6.00;99.90;;;;;;5034234;28;19928;-58
2023/01/15 02:06:17;;;;;;;;;;;6.00;99.90;;;;;;5033588;28;19975;-58
2023/01/15 02:08:44;;;;;;;;;;;5.90;99.90;;;;;;5034021;28;19967;-60
2023/01/15 02:11:14;;;;;;;;;;;5.90;99.90;;;;;;5033849;28;19974;-59
2023/01/15 02:13:42;;;;;;;;;;;5.90;99.90;;;;;;5034192;28;19922;-59
2023/01/15 02:16:11;;;;;;;;;;;5.90;99.90;;;;;;5033471;28;20372;-60
2023/01/15 02:18:43;;;;;;;;;;;5.90;99.90;;;;;;5033874;28;20351;-60
2023/01/15 02:21:14;;;;;;;;;;;6.00;99.90;;;;;;5033523;28;19920;-59
2023/01/15 02:23:58;;;;;;;;;;;6.00;99.90;;;;;;5033741;28;19928;-59
2023/01/15 02:26:30;;;;;;;;;;;5.90;99.90;;;;;;5031356;28;20346;-59
2023/01/15 02:28:58;;;;;;;;;;;6.00;99.90;;;;;;5021737;28;19921;-59
2023/01/15 02:31:27;;;;;;;;;;;5.90;99.90;;;;;;5013817;28;19921;-59
2023/01/15 02:33:58;;;;;;;;;;;5.90;99.90;;;;;;5013752;28;19944;-60
2023/01/15 02:36:26;;;;;;;;;;;5.90;99.90;;;;;;5013469;28;19921;-60
2023/01/15 02:38:55;;;;;;;;;;;5.90;99.90;;;;;;5013823;28;20355;-60
2023/01/15 02:41:24;;;;;;;;;;;5.90;99.90;;;;;;5013585;28;19971;-59
2023/01/15 02:43:53;;;;;;;;;;;5.90;99.90;;;;;;5013518;28;19922;-60
2023/01/15 02:46:23;;;;;;;;;;;5.90;99.90;;;;;;5013265;28;19921;-60
2023/01/15 02:48:52;;;;;;;;;;;6.00;99.90;;;;;;5013325;28;19925;-60
2023/01/15 02:51:20;;;;;;;;;;;6.00;99.90;;;;;;5013682;28;19975;-60
2023/01/15 02:53:48;;;;;;;;;;;5.90;99.90;;;;;;5013535;28;20288;-60
2023/01/15 02:56:17;;;;;;;;;;;5.90;99.90;;;;;;5014018;28;19921;-61
2023/01/15 02:58:44;;;;;;;;;;;5.80;99.90;;;;;;5024781;28;20307;-59
2023/01/15 03:01:13;;;;;;;;;;;5.80;99.90;;;;;;5033050;28;19921;-60
2023/01/15 03:03:44;;;;;;;;;;;5.80;99.90;;;;;;5033268;28;19928;-59
2023/01/15 03:06:12;;;;;;;;;;;5.80;99.90;;;;;;5032948;28;19921;-60
2023/01/15 03:08:39;;;;;;;;;;;5.90;99.90;;;;;;5032607;28;20372;-61
2023/01/15 03:11:07;;;;;;;;;;;6.00;99.90;;;;;;5033108;28;19921;-60
2023/01/15 03:13:41;;;;;;;;;;;6.00;99.90;;;;;;5032887;28;19951;-60
2023/01/15 03:19:00;;;;;;;;;;;6.00;99.90;;;;;;5032671;28;19924;-60
2023/01/15 03:21:30;;;;;;;;;;;6.00;99.90;;;;;;5032541;28;19921;-61
2023/01/15 03:24:01;;;;;;;;;;;6.00;99.90;;;;;;5032535;28;19921;-60
2023/01/15 03:26:28;;;;;;;;;;;5.90;99.90;;;;;;5029850;28;19967;-59
2023/01/15 03:28:55;;;;;;;;;;;5.90;99.90;;;;;;5020929;28;19921;-59
2023/01/15 03:31:21;;;;;;;;;;;5.90;99.90;;;;;;5012770;28;19925;-60
2023/01/15 03:33:48;;;;;;;;;;;5.90;99.90;;;;;;5012638;28;19921;-60
2023/01/15 03:36:16;;;;;;;;;;;5.80;99.90;;;;;;5012643;28;19983;-60
2023/01/15 03:38:46;;;;;;;;;;;5.70;99.90;;;;;;5012676;28;19933;-60
2023/01/15 03:41:15;;;;;;;;;;;5.70;99.90;;;;;;5012647;28;19928;-60
2023/01/15 03:43:49;;;;;;;;;;;5.70;99.90;;;;;;5012933;28;19921;-59
2023/01/15 03:46:23;;;;;;;;;;;5.70;99.90;;;;;;5012025;28;19922;-59
2023/01/15 03:48:53;;;;;;;;;;;5.70;99.90;;;;;;5012334;28;20420;-59
2023/01/15 03:51:23;;;;;;;;;;;5.60;99.90;;;;;;5012423;28;19921;-60
2023/01/15 03:53:53;;;;;;;;;;;5.60;99.90;;;;;;5012456;28;19975;-60
2023/01/15 03:56:24;;;;;;;;;;;5.70;99.90;;;;;;5013431;28;20369;-60
2023/01/15 03:58:53;;;;;;;;;;;5.70;99.90;;;;;;5024572;28;19921;-60
2023/01/15 04:01:21;;;;;;;;;;;5.60;99.90;;;;;;5032247;28;19920;-60
2023/01/15 04:03:49;;;;;;;;;;;5.60;99.90;;;;;;5032132;28;19925;-60
2023/01/15 04:06:15;;;;;;;;;;;5.60;99.90;;;;;;5032028;28;19921;-59
2023/01/15 04:08:44;;;;;;;;;;;5.60;99.90;;;;;;5032320;28;20376;-60
2023/01/15 04:11:10;;;;;;;;;;;5.60;99.90;;;;;;5031885;28;19921;-59
2023/01/15 04:13:37;;;;;;;;;;;5.50;99.90;;;;;;5032082;28;20620;-59
2023/01/15 04:16:04;;;;;;;;;;;5.50;99.90;;;;;;5031893;28;19928;-60
2023/01/15 04:18:31;;;;;;;;;;;5.50;99.90;;;;;;5032514;28;19928;-60
2023/01/15 04:20:58;;;;;;;;;;;5.50;99.90;;;;;;5035562;28;19924;-60
2023/01/15 04:23:24;;;;;;;;;;;5.60;99.90;;;;;;5036129;28;20354;-60
2023/01/15 04:25:52;;;;;;;;;;;5.60;99.90;;;;;;5035784;28;19928;-60
2023/01/15 04:28:19;;;;;;;;;;;5.60;99.90;;;;;;5024868;28;19921;-60
2023/01/15 04:30:46;;;;;;;;;;;5.60;99.90;;;;;;5014781;28;19928;-60
2023/01/15 04:33:12;;;;;;;;;;;5.70;99.90;;;;;;5014867;28;20380;-59
2023/01/15 04:35:39;;;;;;;;;;;5.70;99.90;;;;;;5016154;28;19921;-59
2023/01/15 04:38:05;;;;;;;;;;;5.70;99.90;;;;;;5015557;28;20369;-61
2023/01/15 04:46:01;;;;;;;;;;;5.70;99.90;;;;;;5015436;28;20297;-61
2023/01/15 04:48:28;;;;;;;;;;;5.70;99.90;;;;;;5015681;28;19921;-61
2023/01/15 04:50:54;;;;;;;;;;;5.70;99.90;;;;;;5015732;28;19975;-60
2023/01/15 04:53:21;;;;;;;;;;;5.70;99.90;;;;;;5015834;28;19922;-61
2023/01/15 04:55:47;;;;;;;;;;;5.70;99.90;;;;;;5015689;28;19922;-61
2023/01/15 04:58:14;;;;;;;;;;;5.70;99.90;;;;;;5023681;28;19929;-61
2023/01/15 05:00:42;;;;;;;;;;;5.80;99.90;;;;;;5035174;28;19948;-60
2023/01/15 05:03:08;;;;;;;;;;;5.80;99.90;;;;;;5035449;28;19925;-66
2023/01/15 05:05:35;;;;;;;;;;;5.80;99.90;;;;;;5035604;28;19928;-62
2023/01/15 05:08:01;;;;;;;;;;;5.80;99.90;;;;;;5035030;28;20339;-61
2023/01/15 05:10:28;;;;;;;;;;;5.80;99.90;;;;;;5035065;28;20369;-61
2023/01/15 05:12:54;;;;;;;;;;;5.90;99.90;;;;;;5035183;28;19921;-63
2023/01/15 05:15:21;;;;;;;;;;;5.80;99.90;;;;;;5035185;28;19960;-62
2023/01/15 05:17:49;;;;;;;;;;;5.90;99.90;;;;;;5034727;28;20376;-61
2023/01/15 05:20:15;;;;;;;;;;;5.80;99.90;;;;;;5035007;28;19924;-61
2023/01/15 05:22:42;;;;;;;;;;;5.80;99.90;;;;;;5034874;28;19925;-61
2023/01/15 05:25:09;;;;;;;;;;;5.80;99.90;;;;;;5034721;28;19932;-61
2023/01/15 05:27:35;;;;;;;;;;;5.80;99.90;;;;;;5026286;28;19925;-61
2023/01/15 05:30:02;;;;;;;;;;;5.80;99.90;;;;;;5019043;28;19925;-61
2023/01/15 05:32:29;;;;;;;;;;;5.80;99.90;;;;;;5015098;28;20475;-61
2023/01/15 05:34:57;;;;;;;;;;;5.80;99.90;;;;;;5014935;28;19921;-60
2023/01/15 05:37:24;;;;;;;;;;;5.80;99.90;;;;;;5013720;28;20347;-60
2023/01/15 05:39:50;;;;;;;;;;;5.80;99.90;;;;;;5013461;28;19921;-61
2023/01/15 05:42:17;;;;;;;;;;;5.80;99.90;;;;;;5014022;28;19922;-61
2023/01/15 05:44:44;;;;;;;;;;;5.80;99.90;;;;;;5013973;28;19929;-61
2023/01/15 05:47:10;;;;;;;;;;;5.80;99.90;;;;;;5014254;28;19921;-60
2023/01/15 05:49:37;;;;;;;;;;;5.80;99.90;;;;;;5014745;28;19921;-61
2023/01/15 05:52:05;;;;;;;;;;;5.80;99.90;;;;;;5014369;28;19971;-61
2023/01/15 05:54:33;;;;;;;;;;;5.80;99.90;;;;;;5014645;28;19932;-61
2023/01/15 05:57:00;;;;;;;;;;;5.80;99.90;;;;;;5020859;28;19983;-61
2023/01/15 05:59:27;;;;;;;;;;;5.90;99.90;;;;;;5025909;28;19921;-61
2023/01/15 06:01:54;;;;;;;;;;;6.00;99.90;;;;;;5034308;28;19932;-63
2023/01/15 06:04:21;;;;;;;;;;;6.00;99.90;;;;;;5034045;28;19921;-61
2023/01/15 06:06:48;;;;;;;;;;;5.90;99.90;;;;;;5033654;28;19921;-62
2023/01/15 06:09:16;;;;;;;;;;;6.00;99.90;;;;;;5034425;28;19920;-61
2023/01/15 06:11:43;;;;;;;;;;;6.00;99.90;;;;;;5034186;28;19924;-61
2023/01/15 06:14:10;;;;;;;;;;;6.10;99.90;;;;;;5034283;28;20366;-59
2023/01/15 06:16:36;;;;;;;;;;;6.10;99.90;;;;;;5034121;28;19920;-61
2023/01/15 06:19:04;;;;;;;;;;;6.10;99.90;;;;;;5034105;28;19921;-59
2023/01/15 06:21:30;;;;;;;;;;;6.10;99.90;;;;;;5033823;28;19921;-61
2023/01/15 06:23:57;;;;;;;;;;;6.10;99.90;;;;;;5034028;28;19921;-61
2023/01/15 06:26:25;;;;;;;;;;;6.10;99.90;;;;;;5031784;28;19974;-62
2023/01/15 06:28:52;;;;;;;;;;;6.10;99.90;;;;;;5022195;28;19922;-60
2023/01/15 06:31:20;;;;;;;;;;;6.10;99.90;;;;;;5013388;28;19925;-60
2023/01/15 06:33:47;;;;;;;;;;;6.20;99.90;;;;;;5014212;28;19921;-61
2023/01/15 06:36:14;;;;;;;;;;;6.20;99.90;;;;;;5013825;28;19932;-62
2023/01/15 06:38:41;;;;;;;;;;;6.20;99.90;;;;;;5013820;28;19925;-61
2023/01/15 06:49:27;;;;;;;;;;;6.10;99.90;;;;;;5013817;28;19925;-62
2023/01/15 06:51:53;;;;;;;;;;;6.10;99.90;;;;;;5013417;28;19921;-62
2023/01/15 06:54:20;;;;;;;;;;;6.10;99.90;;;;;;5013462;28;19921;-61
2023/01/15 06:56:46;;;;;;;;;;;6.10;99.90;;;;;;5018299;28;19967;-62
2023/01/15 06:59:14;;;;;;;;;;;6.00;99.90;;;;;;5024610;28;19975;-62
2023/01/15 07:01:41;;;;;;;;;;;6.10;99.90;;;;;;5025550;28;20288;-60
2023/01/15 07:04:08;;;;;;;;;;;6.10;99.90;;;;;;5033527;28;20300;-61
2023/01/15 07:06:34;;;;;;;;;;;6.10;99.90;;;;;;5033281;28;19990;-61
2023/01/15 07:09:01;;;;;;;;;;;6.10;99.90;;;;;;5033706;28;20610;-62
2023/01/15 07:11:27;;;;;;;;;;;6.10;99.90;;;;;;5033209;28;19925;-62
2023/01/15 07:14:04;;;;;;;;;;;6.00;99.90;;;;;;5033347;28;19921;-62
2023/01/15 07:16:32;;;;;;;;;;;6.00;99.90;;;;;;5032639;28;19921;-61
2023/01/15 07:18:59;;;;;;;;;;;6.10;99.90;;;;;;5032977;28;20495;-62
2023/01/15 07:21:26;;;;;;;;;;;6.10;99.90;;;;;;5032846;28;19928;-62
2023/01/15 07:23:53;;;;;;;;;;;6.10;99.90;;;;;;5032904;28;19921;-60
2023/01/15 07:26:19;;;;;;;;;;;6.10;99.90;;;;;;5033485;28;19929;-61
2023/01/15 07:28:46;;;;;;;;;;;6.00;99.90;;;;;;5024603;28;19921;-59
2023/01/15 07:31:13;;;;;;;;;;;6.00;99.90;;;;;;5033228;28;19928;-61
2023/01/15 07:33:41;;;;;;;;;;;6.00;99.90;;;;;;5033040;28;19924;-60
2023/01/15 07:36:08;;;;;;;;;;;6.00;99.90;;;;;;5033009;28;19928;-61
2023/01/15 07:38:34;;;;;;;;;;;6.00;99.90;;;;;;5033268;28;19929;-59
2023/01/15 07:51:58;;;;;;;;;;;5.90;99.90;;;;;;5032752;28;19928;-61
2023/01/15 07:54:25;;;;;;;;;;;5.80;99.90;;;;;;5032713;28;19924;-63
2023/01/15 07:56:52;;;;;;;;;;;5.90;99.90;;;;;;5026997;28;19968;-61
2023/01/15 07:59:19;;;;;;;;;;;5.80;99.90;;;;;;5030004;28;19921;-61
2023/01/15 08:01:46;;;;;;;;;;;5.90;99.90;;;;;;5032723;28;19921;-61
2023/01/15 08:04:13;;;;;;;;;;;5.90;99.90;;;;;;5032385;28;19921;-61
2023/01/15 08:06:41;;;;;;;;;;;5.90;99.90;;;;;;5032159;28;20430;-61
2023/01/15 08:09:07;;;;;;;;;;;5.90;99.90;;;;;;5032554;28;19967;-62
2023/01/15 08:17:01;;;;;;;;;;;6.00;99.90;;;;;;5001046;28;19970;-62
2023/01/15 08:19:28;;;;;;;;;;;6.00;99.90;;;;;;5032171;28;19920;-62
2023/01/15 08:21:57;;;;;;;;;;;6.00;99.90;;;;;;5032258;28;19948;-62
2023/01/15 08:24:23;;;;;;;;;;;5.90;99.90;;;;;;5032090;28;19933;-62
2023/01/15 08:26:50;;;;;;;;;;;6.00;99.90;;;;;;5026121;28;19921;-62
2023/01/15 08:29:16;;;;;;;;;;;6.00;99.90;;;;;;5020487;28;19975;-62
2023/01/15 08:31:43;;;;;;;;;;;6.00;99.90;;;;;;5012180;28;19929;-61
2023/01/15 08:34:10;;;;;;;;;;;6.00;99.90;;;;;;5012968;28;19976;-61
2023/01/15 08:36:36;;;;;;;;;;;6.00;99.90;;;;;;5012622;28;19925;-62
2023/01/15 08:39:04;;;;;;;;;;;6.10;99.90;;;;;;5012888;28;20387;-61
2023/01/15 08:41:31;;;;;;;;;;;6.10;93.90;;;;;;5013480;28;19927;-60
2023/01/15 08:43:58;;;;;;;;;;;6.00;91.10;;;;;;5012299;28;19922;-60
2023/01/15 08:46:25;;;;;;;;;;;6.00;98.60;;;;;;5012041;28;19925;-61
2023/01/15 08:48:52;;;;;;;;;;;6.00;99.90;;;;;;5012167;28;19925;-59
2023/01/15 08:51:18;;;;;;;;;;;6.00;99.90;;;;;;5011991;28;19921;-61
2023/01/15 08:53:45;;;;;;;;;;;6.00;99.90;;;;;;5012613;28;20008;-59
2023/01/15 08:56:13;;;;;;;;;;;6.00;93.50;;;;;;5012281;28;19983;-59
2023/01/15 08:58:40;;;;;;;;;;;6.00;94.00;;;;;;5024064;28;19928;-61
2023/01/15 09:01:07;;;;;;;;;;;5.90;67.40;;;;;;5032226;28;19932;-61
2023/01/15 09:03:34;;;;;;;;;;;5.90;74.20;;;;;;5032599;28;19986;-60
2023/01/15 09:06:01;;;;;;;;;;;5.90;71.30;;;;;;5034161;28;20403;-61
2023/01/15 09:08:28;;;;;;;;;;;5.90;60.20;;;;;;5035952;28;19921;-61
2023/01/15 09:11:08;;;;;;;;;;;5.90;60.70;;;;;;5035503;28;19924;-61
2023/01/15 09:13:37;;;;;;;;;;;5.90;58.00;;;;;;5035388;28;19932;-62
2023/01/15 09:16:04;;;;;;;;;;;5.90;59.80;;;;;;5034455;28;20343;-62
2023/01/15 09:18:31;;;;;;;;;;;5.80;58.90;;;;;;5035078;28;19975;-59
2023/01/15 09:20:58;;;;;;;;;;;5.80;58.30;;;;;;5035372;28;19920;-62
2023/01/15 09:23:24;;;;;;;;;;;5.70;50.60;;;;;;5035652;28;20016;-62
2023/01/15 09:25:51;;;;;;;;;;;5.70;38.60;;;;;;5035600;28;19975;-62
2023/01/15 09:28:18;;;;;;;;;;;5.60;38.70;;;;;;5025895;28;19975;-61
2023/01/15 09:30:46;;;;;;;;;;;5.60;40.60;;;;;;5015552;28;20400;-62
2023/01/15 09:33:13;;;;;;;;;;;5.50;36.70;;;;;;5015696;28;19921;-62
2023/01/15 09:35:40;;;;;;;;;;;5.50;31.50;;;;;;5015296;28;19921;-62
2023/01/15 09:38:06;;;;;;;;;;;5.50;29.90;;;;;;5015334;28;19921;-62
2023/01/15 09:40:47;;;;;;;;;;;5.50;29.00;;;;;;5015535;28;19932;-61
2023/01/15 09:43:21;;;;;;;;;;;5.70;23.80;;;;;;5015403;28;19965;-62
2023/01/15 09:45:50;;;;;;;;;;;5.80;30.00;;;;;;5015955;28;19925;-61
2023/01/15 09:48:20;;;;;;;;;;;6.00;37.90;;;;;;5014895;28;20354;-60
2023/01/15 09:50:52;;;;;;;;;;;6.10;40.20;;;;;;5014913;28;19928;-61
2023/01/15 09:53:25;;;;;;;;;;;6.20;26.90;;;;;;5014839;28;19925;-62
2023/01/15 09:55:53;;;;;;;;;;;6.20;19.20;;;;;;5014877;28;19921;-60
2023/01/15 09:58:21;;;;;;;;;;;6.10;23.40;;;;;;5031417;28;19921;-60
2023/01/15 10:00:51;;;;;;;;;;;6.00;32.10;;;;;;5014867;28;20537;-59
2023/01/15 10:03:23;;;;;;;;;;;6.00;27.50;;;;;;5014922;28;20395;-62
2023/01/15 10:05:54;;;;;;;;;;;6.00;32.40;;;;;;5014490;28;19948;-62
2023/01/15 10:08:23;;;;;;;;;;;6.10;36.10;;;;;;5014830;28;20008;-62
2023/01/15 10:10:52;;;;;;;;;;;6.10;44.00;;;;;;5014843;28;19925;-60
2023/01/15 10:13:21;;;;;;;;;;;6.20;50.50;;;;;;5014976;28;19921;-62
2023/01/15 10:15:49;;;;;;;;;;;6.30;33.40;;;;;;5014357;28;19947;-61
2023/01/15 10:18:19;;;;;;;;;;;6.40;37.60;;;;;;5013791;28;19948;-61
2023/01/15 10:20:53;;;;;;;;;;;6.50;13.80;;;;;;5014666;28;19925;-62
2023/01/15 10:23:34;;;;;;;;;;;6.20;17.00;;;;;;5014870;28;19949;-62
2023/01/15 10:26:02;;;;;;;;;;;6.20;9.60;;;;;;5014106;28;19968;-62
2023/01/15 10:28:30;;;;;;;;;;;6.20;1.60;;;;;;5024640;28;20016;-62
2023/01/15 10:31:03;;;;;;;;;;;6.50;7.60;;;;;;5033860;28;20371;-62
2023/01/15 10:33:46;;;;;;;;;;;6.30;1.00;;;;;;5034371;28;19925;-59
2023/01/15 10:36:15;;;;;;;;;;;6.30;1.00;;;;;;5033835;28;20415;-60
2023/01/15 10:38:47;;;;;;;;;;;6.40;1.00;;;;;;5033632;28;19975;-60
2023/01/15 10:41:32;;;;;;;;;;;6.40;1.00;;;;;;5034325;28;20335;-60
2023/01/15 10:44:01;;;;;;;;;;;6.40;1.00;;;;;;5020913;28;19921;-60
2023/01/15 10:46:32;;;;;;;;;;;6.40;1.00;;;;;;5033475;28;19921;-60
2023/01/15 10:49:01;;;;;;;;;;;6.50;1.00;;;;;;5033335;28;20083;-60
2023/01/15 10:51:30;;;;;;;;;;;6.50;1.00;;;;;;5033723;28;19966;-60
2023/01/15 10:53:58;;;;;;;;;;;6.60;1.00;;;;;;5033705;28;19951;-60
2023/01/15 10:56:33;;;;;;;;;;;6.70;1.00;;;;;;5031388;28;19967;-60
2023/01/15 10:59:07;;;;;;;;;;;6.80;1.00;;;;;;5023092;28;19921;-59
2023/01/15 11:01:35;;;;;;;;;;;6.80;1.00;;;;;;5014513;28;20292;-60
2023/01/15 11:04:01;;;;;;;;;;;7.00;1.00;;;;;;5014373;28;20420;-61
2023/01/15 11:06:30;;;;;;;;;;;7.00;1.00;;;;;;5013587;28;19968;-60
2023/01/15 11:08:57;;;;;;;;;;;6.90;1.00;;;;;;5014232;28;19922;-60
2023/01/15 11:19:53;;;;;;;;;;;7.00;1.00;;;;;;5090559;28;19927;-62
2023/01/15 11:22:20;;;;;;;;;;;6.90;1.00;;;;;;5090084;28;19928;-60
2023/01/15 11:24:48;;;;;;;;;;;6.90;1.00;;;;;;5090350;28;19938;-62
2023/01/15 11:27:17;;;;;;;;;;;6.90;1.00;;;;;;5088628;28;19925;-60
2023/01/15 11:29:45;;;;;;;;;;;6.80;1.00;;;;;;5088674;28;20391;-60
2023/01/15 11:32:26;;;;;;;;;;;6.80;1.00;;;;;;5089074;28;20354;-57
2023/01/15 11:34:53;;;;;;;;;;;6.80;1.00;;;;;;5090258;28;20337;-60
2023/01/15 11:37:20;;;;;;;;;;;6.80;1.00;;;;;;5089672;28;20413;-59
2023/01/15 11:39:51;;;;;;;;;;;6.70;1.00;;;;;;5089859;28;19931;-56
2023/01/15 11:50:48;;;;;;;;;;;6.70;1.00;;;;;;5089734;28;19931;-61
2023/01/15 11:53:17;;;;;;;;;;;6.80;1.00;;;;;;5090637;28;20375;-60
2023/01/15 11:55:50;;;;;;;;;;;6.80;1.00;;;;;;5089886;28;19928;-61
2023/01/15 11:58:16;;;;;;;;;;;6.70;1.00;;;;;;5089625;28;19970;-61
2023/01/15 12:00:49;;;;;;;;;;;6.70;1.00;;;;;;5088632;28;19978;-61
2023/01/15 12:03:17;;;;;;;;;;;6.70;1.00;;;;;;5089022;28;19925;-61
2023/01/15 12:05:46;;;;;;;;;;;6.70;1.00;;;;;;5088903;28;20028;-61
2023/01/15 12:08:17;;;;;;;;;;;6.70;1.00;;;;;;5088648;28;19954;-60
2023/01/15 12:11:04;;;;;;;;;;;6.70;1.00;;;;;;5088649;28;19924;-61
2023/01/15 12:13:34;;;;;;;;;;;6.70;1.00;;;;;;5102684;28;19928;-61
2023/01/15 12:16:07;;;;;;;;;;;6.70;1.00;;;;;;5108707;28;19928;-62
2023/01/15 12:18:46;;;;;;;;;;;6.70;1.00;;;;;;5108728;28;20415;-62
2023/01/15 12:21:19;;;;;;;;;;;6.70;1.00;;;;;;5108388;28;19927;-61
2023/01/15 12:23:58;;;;;;;;;;;6.70;1.00;;;;;;5105876;28;19963;-59
2023/01/15 12:26:27;;;;;;;;;;;6.70;1.00;;;;;;5094793;28;19920;-61
2023/01/15 12:28:57;;;;;;;;;;;6.60;1.00;;;;;;5094983;28;19919;-61
2023/01/15 12:31:27;;;;;;;;;;;6.70;1.00;;;;;;5095092;28;19920;-61
2023/01/15 12:33:55;;;;;;;;;;;6.70;1.00;;;;;;5094850;28;19924;-61
2023/01/15 12:36:25;;;;;;;;;;;6.60;1.00;;;;;;5094587;28;19927;-62
2023/01/15 12:38:54;;;;;;;;;;;6.60;1.00;;;;;;5095103;28;20000;-61
2023/01/15 12:41:23;;;;;;;;;;;6.60;1.00;;;;;;5094994;28;20397;-59
2023/01/15 12:46:40;;;;;;;;;;;6.50;1.00;;;;;;5094995;28;19938;-61
2023/01/15 12:49:13;;;;;;;;;;;6.50;1.00;;;;;;5095020;28;19932;-62
2023/01/15 12:51:45;;;;;;;;;;;6.60;1.00;;;;;;5094662;28;19920;-62
2023/01/15 12:54:14;;;;;;;;;;;6.70;1.00;;;;;;5094489;28;20037;-61
2023/01/15 12:56:45;;;;;;;;;;;6.70;1.00;;;;;;5094068;28;19924;-62
2023/01/15 12:59:16;;;;;;;;;;;6.80;1.00;;;;;;5094099;28;20010;-62
2023/01/15 13:01:50;;;;;;;;;;;6.90;1.00;;;;;;5094598;28;19977;-61
2023/01/15 13:04:18;;;;;;;;;;;7.00;1.00;;;;;;5094746;28;19920;-61
2023/01/15 13:06:47;;;;;;;;;;;7.00;1.00;;;;;;5094187;28;20489;-60
2023/01/15 13:09:22;;;;;;;3.50;0.83;;;7.10;1.00;;;;;;5093540;28;20550;-62
2023/01/15 13:11:49;;;;;;;2.70;0.82;;;7.20;1.00;;;;;;5090040;28;20941;-65
2023/01/15 13:14:18;;;;;;;2.90;1.10;;;7.20;99.90;;;;;;5087866;28;20417;-65
2023/01/15 13:16:53;;;;;;;4.40;1.30;;;7.00;1.00;;;;;;5091706;28;20521;-66
2023/01/15 13:19:31;;;;;;;4.63;1.00;;;7.00;1.00;;;;;;5092720;28;20431;-66
2023/01/15 13:22:03;;;;;;;3.83;0.98;;;7.00;1.00;;;;;;5091931;28;20414;-67
2023/01/15 13:24:52;;;;;;;4.10;1.00;;;6.90;1.00;;;;;;5092191;28;20906;-63
2023/01/15 13:27:33;;;;;;;1.90;0.80;;;6.90;1.00;;;;;;5091952;28;20420;-63
2023/01/15 13:30:15;;;;;;;3.53;1.10;;;6.80;1.00;;;;;;5091789;28;20904;-63
2023/01/15 13:32:47;;;;;;;4.78;0.90;;;6.70;1.00;;;;;;5091407;28;20425;-61
2023/01/15 13:35:25;;;;;;;3.28;0.85;;;6.70;1.00;;;;;;5091313;28;20927;-62
2023/01/15 13:37:54;;;;;;;4.03;0.90;;;6.60;1.00;;;;;;5090869;28;20853;-61
2023/01/15 13:40:26;;;;;;;3.10;0.85;;;6.60;1.00;;;;;;5091849;28;20504;-62
2023/01/15 13:42:53;;;;;;;4.68;1.10;;;6.50;1.00;;;;;;5091391;28;20822;-62
2023/01/15 13:45:32;;;;;;;2.97;0.80;;;6.60;1.00;;;;;;5091726;28;20420;-62
2023/01/15 13:48:08;;;;;;;5.45;1.05;;;6.50;1.00;;;;;;5091979;28;20762;-61
2023/01/15 13:50:37;;;;;;;3.30;0.90;;;6.50;1.00;;;;;;5091130;28;20772;-63
2023/01/15 13:53:07;;;;;;;4.28;0.93;;;6.50;1.00;;;;;;5090875;28;20422;-63
2023/01/15 13:55:37;;;;;;;4.53;1.20;;;6.50;1.00;;;;;;5091263;28;20423;-63
2023/01/15 13:58:16;;;;;;;3.35;1.00;;;6.60;1.00;;;;;;5091117;28;20439;-64
2023/01/15 14:00:42;;;;;;;6.85;1.10;;;6.60;1.00;;;;;;5087201;28;20410;-64
2023/01/15 14:03:27;;;;;;;3.83;1.15;;;6.50;1.00;;;;;;5093211;28;20418;-63
2023/01/15 14:05:58;;;;;;;3.67;0.93;;;6.60;1.00;;;;;;5093769;28;20463;-63
2023/01/15 14:08:27;;;;;;;4.43;1.20;;;6.50;1.00;;;;;;5091787;28;20483;-64
2023/01/15 14:10:55;;;;;;;3.07;1.00;;;6.50;1.00;;;;;;5091203;28;20449;-63
2023/01/15 14:13:51;;;;;;;4.88;1.08;;;6.50;1.00;;;;;;5090530;28;20440;-62
2023/01/15 14:16:23;;;;;;;;;;;6.50;1.00;;;;;;5057876;28;20417;-62
2023/01/15 14:19:03;;;;;;;;;;;6.60;1.00;;;;;;5092454;28;19920;-63
2023/01/15 14:21:33;;;;;;;;;;;6.60;1.00;;;;;;5092261;28;19923;-63
2023/01/15 14:24:18;;;;;;;;;;;6.60;1.00;;;;;;5092421;28;19927;-63
2023/01/15 14:26:48;;;;;;;;;;;6.50;1.00;;;;;;5092040;28;19943;-64
2023/01/15 14:29:31;;;;;;;;;;;6.60;1.00;;;;;;5091764;28;20031;-63
2023/01/15 14:32:00;;;;;;;;;;;6.50;1.00;;;;;;5090975;28;19924;-64
2023/01/15 14:34:29;;;;;;;;;;;6.50;1.00;;;;;;5092118;28;19988;-61
2023/01/15 14:36:59;;;;;;;;;;;6.50;1.00;;;;;;5092008;28;19988;-61
2023/01/15 14:39:43;;;;;;;;;;;6.60;1.00;;;;;;5091590;28;19926;-61
2023/01/15 14:44:59;;;;;;;;;;;6.60;1.00;;;;;;5091773;28;20381;-62
2023/01/15 14:47:28;;;;;;;;;;;6.50;1.00;;;;;;5091535;28;19927;-64
2023/01/15 14:50:21;;;;;;;;;;;6.50;1.00;;;;;;5092064;28;19924;-62
2023/01/15 14:52:48;;;;;;;;;;;6.40;1.00;;;;;;5091223;28;20374;-61
2023/01/15 14:55:16;;;;;;;;;;;6.40;1.00;;;;;;5091970;28;19919;-65
2023/01/15 14:57:44;;;;;;;;;;;6.50;1.00;;;;;;5091876;28;19920;-64
2023/01/15 15:00:15;;;;;;;;;;;6.50;1.00;;;;;;5091634;28;19923;-64
2023/01/15 15:02:43;;;;;;;;;;;6.40;1.00;;;;;;5091390;28;19923;-63
2023/01/15 15:05:14;;;;;;;;;;;6.50;1.00;;;;;;5090059;28;19920;-64
2023/01/15 15:07:43;;;;;;;;;;;6.50;1.00;;;;;;5090042;28;20584;-64
2023/01/15 15:10:17;;;;;;;;;;;6.50;1.00;;;;;;5090049;28;20343;-65
2023/01/15 15:12:46;;;;;;;;;;;6.60;99.90;;;;;;5089624;28;19924;-63
2023/01/15 15:15:16;;;;;;;;;;;6.60;1.00;;;;;;5086253;28;19966;-64
2023/01/15 15:17:47;;;;;;;;;;;6.50;1.00;;;;;;5073927;28;19928;-64
2023/01/15 15:20:22;;;;;;;;;;;6.50;1.00;;;;;;5086899;28;19928;-63
2023/01/15 15:22:51;;;;;;;;;;;6.60;1.00;;;;;;5081501;28;19920;-64
2023/01/15 15:25:22;;;;;;;3.42;0.98;;;6.50;1.00;;;;;;5081743;28;20522;-63
2023/01/15 15:27:48;;;;;;;2.75;0.95;;;6.50;1.00;;;;;;5083562;28;20745;-63
2023/01/15 15:30:15;;;;;;;;;;;6.50;1.00;;;;;;5079745;28;20423;-63
2023/01/15 15:32:43;;;;;;;;;;;6.60;1.00;;;;;;5079168;28;19926;-63
2023/01/15 15:35:20;;;;;;;;;;;6.50;1.00;;;;;;5081912;28;19920;-63